sensor_id;sensor_type;location;lat;lon;timestamp;temperature;humidity
49821;DHT22;36893;52.520;13.450;2023-04-03T00:04:50;20.80;73.90
49821;DHT22;36893;52.520;13.450;2023-04-03T00:14:50;20.80;73.80
49821;DHT22;36893;52.520;13.450;2023-04-03T00:24:51;20.80;73.80
49821;DHT22;36893;52.520;13.450;2023-04-03T00:34:52;20.80;73.90
49821;DHT22;36893;52.520;13.450;2023-04-03T00:54:54;20.80;73.80
49821;DHT22;36893;52.520;13.450;2023-04-03T01:04:57;20.80;73.80
49821;DHT22;36893;52.520;13.450;2023-04-03T01:15:04;20.70;73.70
49821;DHT22;36893;52.520;13.450;2023-04-03T01:25:07;20.70;73.80
49821;DHT22;36893;52.520;13.450;2023-04-03T01:35:09;20.70;73.70
49821;DHT22;36893;52.520;13.450;2023-04-03T01:45:10;20.70;73.60
49821;DHT22;36893;52.520;13.450;2023-04-03T01:55:11;20.70;73.60
49821;DHT22;36893;52.520;13.450;2023-04-03T02:05:11;20.70;73.60
49821;DHT22;36893;52.520;13.450;2023-04-03T02:15:12;20.70;73.50
49821;DHT22;36893;52.520;13.450;2023-04-03T02:25:13;20.70;73.50
49821;DHT22;36893;52.520;13.450;2023-04-03T02:35:13;20.70;73.50
49821;DHT22;36893;52.520;13.450;2023-04-03T02:45:14;20.70;73.40
49821;DHT22;36893;52.520;13.450;2023-04-03T02:55:15;20.70;73.50
49821;DHT22;36893;52.520;13.450;2023-04-03T03:05:16;20.60;73.40
49821;DHT22;36893;52.520;13.450;2023-04-03T03:15:17;20.60;73.40
49821;DHT22;36893;52.520;13.450;2023-04-03T03:25:19;20.60;73.30
49821;DHT22;36893;52.520;13.450;2023-04-03T03:35:20;20.60;73.30
49821;DHT22;36893;52.520;13.450;2023-04-03T03:45:20;20.60;73.30
49821;DHT22;36893;52.520;13.450;2023-04-03T03:55:21;20.60;73.30
49821;DHT22;36893;52.520;13.450;2023-04-03T04:05:22;20.60;73.30
49821;DHT22;36893;52.520;13.450;2023-04-03T04:15:23;20.60;73.20
49821;DHT22;36893;52.520;13.450;2023-04-03T04:25:25;20.60;73.20
49821;DHT22;36893;52.520;13.450;2023-04-03T04:35:26;20.50;73.10
49821;DHT22;36893;52.520;13.450;2023-04-03T04:45:26;20.50;73.00
49821;DHT22;36893;52.520;13.450;2023-04-03T04:55:27;20.50;73.00
49821;DHT22;36893;52.520;13.450;2023-04-03T05:05:28;20.50;73.80
49821;DHT22;36893;52.520;13.450;2023-04-03T05:15:28;20.50;73.00
49821;DHT22;36893;52.520;13.450;2023-04-03T05:25:29;20.50;73.20
49821;DHT22;36893;52.520;13.450;2023-04-03T05:35:30;20.50;73.20
49821;DHT22;36893;52.520;13.450;2023-04-03T05:45:30;20.50;73.30
49821;DHT22;36893;52.520;13.450;2023-04-03T05:55:31;20.50;73.40
49821;DHT22;36893;52.520;13.450;2023-04-03T06:05:32;20.50;73.50
49821;DHT22;36893;52.520;13.450;2023-04-03T06:15:33;20.50;73.70
49821;DHT22;36893;52.520;13.450;2023-04-03T06:25:34;20.50;73.90
49821;DHT22;36893;52.520;13.450;2023-04-03T06:35:35;20.50;73.90
49821;DHT22;36893;52.520;13.450;2023-04-03T06:45:36;20.50;73.90
49821;DHT22;36893;52.520;13.450;2023-04-03T06:55:37;20.50;73.90
49821;DHT22;36893;52.520;13.450;2023-04-03T07:05:38;20.50;73.80
49821;DHT22;36893;52.520;13.450;2023-04-03T07:15:38;20.50;73.80
49821;DHT22;36893;52.520;13.450;2023-04-03T07:25:43;20.50;73.80
49821;DHT22;36893;52.520;13.450;2023-04-03T07:35:45;20.50;73.70
49821;DHT22;36893;52.520;13.450;2023-04-03T07:45:47;20.40;73.60
49821;DHT22;36893;52.520;13.450;2023-04-03T07:55:50;20.40;73.50
49821;DHT22;36893;52.520;13.450;2023-04-03T08:06:02;20.50;73.50
49821;DHT22;36893;52.520;13.450;2023-04-03T08:16:14;20.50;73.50
49821;DHT22;36893;52.520;13.450;2023-04-03T08:26:20;20.50;73.60
49821;DHT22;36893;52.520;13.450;2023-04-03T08:36:22;20.50;73.50
49821;DHT22;36893;52.520;13.450;2023-04-03T08:56:46;20.50;73.50
49821;DHT22;36893;52.520;13.450;2023-04-03T09:06:54;20.60;73.50
49821;DHT22;36893;52.520;13.450;2023-04-03T09:17:00;20.60;73.50
49821;DHT22;36893;52.520;13.450;2023-04-03T09:27:07;20.60;73.50
49821;DHT22;36893;52.520;13.450;2023-04-03T09:37:32;20.70;73.60
49821;DHT22;36893;52.520;13.450;2023-04-03T09:47:38;20.70;73.60
49821;DHT22;36893;52.520;13.450;2023-04-03T09:57:39;20.70;73.50
49821;DHT22;36893;52.520;13.450;2023-04-03T10:07:40;20.70;73.50
49821;DHT22;36893;52.520;13.450;2023-04-03T10:39:01;20.70;73.50
49821;DHT22;36893;52.520;13.450;2023-04-03T10:59:36;20.70;73.40
49821;DHT22;36893;52.520;13.450;2023-04-03T11:09:42;20.70;73.30
49821;DHT22;36893;52.520;13.450;2023-04-03T11:30:05;20.60;73.50
49821;DHT22;36893;52.520;13.450;2023-04-03T11:40:26;20.60;73.60
49821;DHT22;36893;52.520;13.450;2023-04-03T12:01:10;20.60;73.60
49821;DHT22;36893;52.520;13.450;2023-04-03T12:21:14;20.60;73.60
49821;DHT22;36893;52.520;13.450;2023-04-03T12:31:19;20.60;73.70
49821;DHT22;36893;52.520;13.450;2023-04-03T12:41:27;20.60;73.60
49821;DHT22;36893;52.520;13.450;2023-04-03T12:51:44;20.70;73.60
49821;DHT22;36893;52.520;13.450;2023-04-03T13:01:58;20.60;73.50
49821;DHT22;36893;52.520;13.450;2023-04-03T13:12:03;20.60;73.50
49821;DHT22;36893;52.520;13.450;2023-04-03T13:32:29;20.60;73.40
49821;DHT22;36893;52.520;13.450;2023-04-03T13:42:33;20.60;73.40
49821;DHT22;36893;52.520;13.450;2023-04-03T13:52:43;20.60;73.40
49821;DHT22;36893;52.520;13.450;2023-04-03T14:02:48;20.50;73.30
49821;DHT22;36893;52.520;13.450;2023-04-03T14:12:49;20.50;73.30
49821;DHT22;36893;52.520;13.450;2023-04-03T14:22:52;20.50;73.20
49821;DHT22;36893;52.520;13.450;2023-04-03T14:32:54;20.50;73.10
49821;DHT22;36893;52.520;13.450;2023-04-03T14:42:55;20.50;73.10
49821;DHT22;36893;52.520;13.450;2023-04-03T14:52:58;20.50;73.00
49821;DHT22;36893;52.520;13.450;2023-04-03T15:02:59;20.50;73.00
49821;DHT22;36893;52.520;13.450;2023-04-03T15:13:00;20.60;73.00
49821;DHT22;36893;52.520;13.450;2023-04-03T15:23:01;20.80;72.60
49821;DHT22;36893;52.520;13.450;2023-04-03T15:33:01;20.90;72.50
49821;DHT22;36893;52.520;13.450;2023-04-03T15:43:04;21.00;72.40
49821;DHT22;36893;52.520;13.450;2023-04-03T15:53:05;21.00;72.40
49821;DHT22;36893;52.520;13.450;2023-04-03T16:03:12;21.00;72.40
49821;DHT22;36893;52.520;13.450;2023-04-03T16:13:15;21.00;72.70
49821;DHT22;36893;52.520;13.450;2023-04-03T16:23:16;21.10;72.40
49821;DHT22;36893;52.520;13.450;2023-04-03T16:33:16;21.20;73.20
49821;DHT22;36893;52.520;13.450;2023-04-03T16:43:17;21.30;72.50
49821;DHT22;36893;52.520;13.450;2023-04-03T16:53:18;21.20;72.80
49821;DHT22;36893;52.520;13.450;2023-04-03T17:03:20;21.30;72.90
49821;DHT22;36893;52.520;13.450;2023-04-03T17:13:21;21.40;72.80
49821;DHT22;36893;52.520;13.450;2023-04-03T17:23:22;21.40;72.70
49821;DHT22;36893;52.520;13.450;2023-04-03T17:33:24;21.40;72.90
49821;DHT22;36893;52.520;13.450;2023-04-03T17:43:26;21.50;72.80
49821;DHT22;36893;52.520;13.450;2023-04-03T17:53:27;21.50;72.60
49821;DHT22;36893;52.520;13.450;2023-04-03T18:03:27;21.50;72.90
49821;DHT22;36893;52.520;13.450;2023-04-03T18:13:28;21.50;72.90
49821;DHT22;36893;52.520;13.450;2023-04-03T18:23:31;21.60;72.80
49821;DHT22;36893;52.520;13.450;2023-04-03T18:33:33;21.60;72.80
49821;DHT22;36893;52.520;13.450;2023-04-03T18:43:34;21.60;73.00
49821;DHT22;36893;52.520;13.450;2023-04-03T18:53:34;21.50;72.90
49821;DHT22;36893;52.520;13.450;2023-04-03T19:03:36;21.60;72.90
49821;DHT22;36893;52.520;13.450;2023-04-03T19:13:37;21.60;72.90
49821;DHT22;36893;52.520;13.450;2023-04-03T19:23:37;21.60;73.00
49821;DHT22;36893;52.520;13.450;2023-04-03T19:33:42;21.50;73.30
49821;DHT22;36893;52.520;13.450;2023-04-03T19:43:43;21.40;73.40
49821;DHT22;36893;52.520;13.450;2023-04-03T19:53:44;21.40;73.40
49821;DHT22;36893;52.520;13.450;2023-04-03T20:03:46;21.30;73.40
49821;DHT22;36893;52.520;13.450;2023-04-03T20:13:51;21.30;73.40
49821;DHT22;36893;52.520;13.450;2023-04-03T20:23:52;21.20;73.30
49821;DHT22;36893;52.520;13.450;2023-04-03T20:33:53;21.30;73.10
49821;DHT22;36893;52.520;13.450;2023-04-03T20:43:53;21.30;73.10
49821;DHT22;36893;52.520;13.450;2023-04-03T20:53:54;21.20;73.20
49821;DHT22;36893;52.520;13.450;2023-04-03T21:04:06;21.10;73.10
49821;DHT22;36893;52.520;13.450;2023-04-03T21:25:16;21.00;73.20
49821;DHT22;36893;52.520;13.450;2023-04-03T21:35:16;20.90;73.20
49821;DHT22;36893;52.520;13.450;2023-04-03T21:45:17;20.90;73.20
49821;DHT22;36893;52.520;13.450;2023-04-03T21:55:18;20.80;73.20
49821;DHT22;36893;52.520;13.450;2023-04-03T22:05:19;20.80;73.20
49821;DHT22;36893;52.520;13.450;2023-04-03T22:15:19;20.80;73.20
49821;DHT22;36893;52.520;13.450;2023-04-03T22:25:21;20.70;73.10
49821;DHT22;36893;52.520;13.450;2023-04-03T22:35:22;20.70;73.10
49821;DHT22;36893;52.520;13.450;2023-04-03T22:45:26;20.70;73.10
49821;DHT22;36893;52.520;13.450;2023-04-03T22:55:27;20.70;73.10
49821;DHT22;36893;52.520;13.450;2023-04-03T23:05:28;20.60;73.00
49821;DHT22;36893;52.520;13.450;2023-04-03T23:15:28;20.60;73.00
49821;DHT22;36893;52.520;13.450;2023-04-03T23:25:29;20.60;73.10
49821;DHT22;36893;52.520;13.450;2023-04-03T23:35:30;20.50;73.00
49821;DHT22;36893;52.520;13.450;2023-04-03T23:45:31;20.50;73.80
49821;DHT22;36893;52.520;13.450;2023-04-03T23:55:31;20.50;73.00
